Time;durP1;ratioP1;P1;durP2;ratioP2;P2;SDS_P1;SDS_P2;PMS_P1;PMS_P2;Temp;Humidity;BMP_temperature;BMP_pressure;BME280_temperature;BME280_humidity;BME280_pressure;Samples;Min_cycle;Max_cycle;Signal;HPM_P1;HPM_P2
2021/05/20 00:01:59;;;;;;;11.52;10.73;;;14.80;99.90;;;;;;5015095;28;20060;-52
2021/05/20 00:04:26;;;;;;;11.50;10.90;;;14.90;99.90;;;;;;4997456;28;20025;-51
2021/05/20 00:06:53;;;;;;;11.23;10.60;;;14.90;99.90;;;;;;5015054;28;20022;-50
2021/05/20 00:09:21;;;;;;;10.95;10.13;;;15.20;99.90;;;;;;5014835;28;20033;-48
2021/05/20 00:11:48;;;;;;;10.50;9.73;;;15.30;99.90;;;;;;5014842;28;20026;-49
2021/05/20 00:14:15;;;;;;;10.90;10.10;;;15.20;99.90;;;;;;5014940;28;20024;-47
2021/05/20 00:16:43;;;;;;;10.23;9.57;;;15.10;99.90;;;;;;5014843;28;20044;-51
2021/05/20 00:19:10;;;;;;;9.07;8.52;;;15.10;99.90;;;;;;5014729;28;20026;-50
2021/05/20 00:21:37;;;;;;;10.55;9.52;;;15.10;99.90;;;;;;5014704;28;20145;-51
2021/05/20 00:24:05;;;;;;;10.93;10.30;;;15.20;99.90;;;;;;5014765;28;20026;-51
2021/05/20 00:26:33;;;;;;;11.15;10.38;;;15.30;99.90;;;;;;5014667;28;20037;-51
2021/05/20 00:29:01;;;;;;;10.15;9.30;;;15.60;99.90;;;;;;5014711;28;20025;-49
2021/05/20 00:31:28;;;;;;;10.15;9.38;;;15.70;99.90;;;;;;5014646;28;20022;-48
2021/05/20 00:33:56;;;;;;;10.90;10.02;;;15.70;99.90;;;;;;5014479;28;20026;-48
2021/05/20 00:36:23;;;;;;;10.90;10.02;;;15.90;99.90;;;;;;5014529;28;20018;-48
2021/05/20 00:38:50;;;;;;;9.48;8.90;;;16.10;99.90;;;;;;5014572;28;20022;-50
2021/05/20 00:41:18;;;;;;;9.30;8.60;;;16.20;99.90;;;;;;5014399;28;20018;-49
2021/05/20 00:43:45;;;;;;;9.38;8.55;;;16.10;99.90;;;;;;5014429;28;20100;-52
2021/05/20 00:46:15;;;;;;;8.23;7.53;;;16.10;99.90;;;;;;5014312;28;20022;-51
2021/05/20 00:48:42;;;;;;;8.95;8.23;;;16.20;99.90;;;;;;4996966;28;20495;-55
2021/05/20 00:51:10;;;;;;;9.40;7.75;;;16.10;99.90;;;;;;5014209;28;20049;-54
2021/05/20 00:53:37;;;;;;;7.70;7.20;;;16.20;99.90;;;;;;5014194;28;20034;-49
2021/05/20 00:56:06;;;;;;;9.40;7.20;;;16.40;99.90;;;;;;5013981;28;20030;-49
2021/05/20 00:58:34;;;;;;;7.45;6.80;;;16.50;99.90;;;;;;5013956;28;20026;-52
2021/05/20 01:01:02;;;;;;;7.65;6.60;;;16.80;99.90;;;;;;5014004;28;20109;-50
2021/05/20 01:03:29;;;;;;;7.13;6.53;;;16.90;99.60;;;;;;5014050;28;20026;-53
2021/05/20 01:05:56;;;;;;;6.55;5.78;;;17.00;98.80;;;;;;5013866;28;20478;-51
2021/05/20 01:08:25;;;;;;;6.40;5.80;;;17.10;98.70;;;;;;5013916;28;20036;-52
2021/05/20 01:10:53;;;;;;;6.28;5.68;;;17.30;98.80;;;;;;5013819;28;20026;-53
2021/05/20 01:13:21;;;;;;;11.15;6.10;;;17.30;98.30;;;;;;4996200;28;20445;-53
2021/05/20 01:15:49;;;;;;;7.75;5.68;;;17.50;98.00;;;;;;5013785;28;20033;-56
2021/05/20 01:18:16;;;;;;;6.20;5.60;;;17.60;98.10;;;;;;5013803;28;20483;-51
2021/05/20 01:20:44;;;;;;;5.75;5.22;;;17.60;97.40;;;;;;5013769;28;20022;-51
2021/05/20 01:23:12;;;;;;;6.13;5.53;;;17.80;97.70;;;;;;5013989;28;20109;-51
2021/05/20 01:25:42;;;;;;;5.60;5.10;;;18.20;96.90;;;;;;5013570;28;20033;-51
2021/05/20 01:28:13;;;;;;;6.50;5.20;;;18.10;96.20;;;;;;5014073;28;20026;-51
2021/05/20 01:30:43;;;;;;;5.50;5.10;;;18.10;95.20;;;;;;5013888;28;20092;-51
2021/05/20 01:33:11;;;;;;;6.10;5.50;;;18.10;95.70;;;;;;5013564;28;20025;-50
2021/05/20 01:35:39;;;;;;;6.22;4.97;;;18.20;95.80;;;;;;5013631;28;20368;-54
2021/05/20 01:38:41;;;;;;;5.50;5.00;;;18.60;94.90;;;;;;5013329;28;20517;-52
2021/05/20 01:41:10;;;;;;;7.03;4.70;;;18.90;95.30;;;;;;5013292;28;20513;-49
2021/05/20 01:43:37;;;;;;;;;;;19.10;94.60;;;;;;5013692;28;20112;-47
2021/05/20 01:46:06;;;;;;;5.43;4.82;;;19.20;94.50;;;;;;4995419;28;20281;-49
2021/05/20 01:48:37;;;;;;;5.30;4.85;;;19.00;93.80;;;;;;5013063;28;20037;-49
2021/05/20 01:51:09;;;;;;;6.57;5.20;;;18.80;94.30;;;;;;5012838;28;20387;-46
2021/05/20 01:53:38;;;;;;;6.53;5.10;;;18.80;94.90;;;;;;5013156;28;20033;-49
2021/05/20 01:56:07;;;;;;;5.90;5.32;;;18.80;94.50;;;;;;5013148;28;20024;-48
2021/05/20 01:58:35;;;;;;;5.10;4.68;;;18.60;94.90;;;;;;5013243;28;20030;-47
2021/05/20 02:01:03;;;;;;;5.95;4.85;;;18.80;94.80;;;;;;5013172;28;20025;-47
2021/05/20 02:03:31;;;;;;;5.90;4.80;;;18.80;93.80;;;;;;5013098;28;20025;-54
2021/05/20 02:06:01;;;;;;;5.55;4.80;;;18.80;94.40;;;;;;5013305;28;20390;-51
2021/05/20 02:08:29;;;;;;;6.53;4.90;;;18.80;93.60;;;;;;5012931;28;20026;-51
2021/05/20 02:10:57;;;;;;;5.22;4.82;;;18.80;94.20;;;;;;5013395;28;20025;-50
2021/05/20 02:13:25;;;;;;;6.82;4.70;;;18.70;93.90;;;;;;5013259;28;20036;-50
2021/05/20 02:15:53;;;;;;;5.50;5.00;;;18.80;94.00;;;;;;5012860;28;20030;-50
2021/05/20 02:18:20;;;;;;;6.75;4.68;;;18.70;94.40;;;;;;5012913;28;20022;-52
2021/05/20 02:20:48;;;;;;;5.63;5.00;;;18.50;93.80;;;;;;5013019;28;20022;-50
2021/05/20 02:23:17;;;;;;;9.27;4.88;;;18.30;94.00;;;;;;5013027;28;20033;-49
2021/05/20 02:25:44;;;;;;;8.88;5.50;;;18.20;94.20;;;;;;5013049;28;20057;-48
2021/05/20 02:28:12;;;;;;;7.03;4.25;;;18.10;94.60;;;;;;4995765;28;20026;-47
2021/05/20 02:30:39;;;;;;;5.00;4.50;;;18.20;94.90;;;;;;5012935;28;20026;-52
2021/05/20 02:33:07;;;;;;;5.50;4.90;;;18.20;94.60;;;;;;5012740;28;20112;-50
2021/05/20 02:35:34;;;;;;;6.72;4.70;;;18.20;95.00;;;;;;5012721;28;20022;-52
2021/05/20 02:38:01;;;;;;;5.82;4.97;;;18.40;95.00;;;;;;5012615;28;20029;-52
2021/05/20 02:40:29;;;;;;;6.32;4.32;;;18.70;94.30;;;;;;5012932;28;20033;-51
2021/05/20 02:42:56;;;;;;;6.00;4.35;;;18.70;95.10;;;;;;5012838;28;20025;-51
2021/05/20 02:45:25;;;;;;;7.00;4.85;;;18.80;94.70;;;;;;5012873;28;20435;-49
2021/05/20 02:47:54;;;;;;;5.07;4.60;;;18.90;93.80;;;;;;5012761;28;20053;-48
2021/05/20 02:50:23;;;;;;;5.63;5.10;;;19.00;94.80;;;;;;5012574;28;20042;-51
2021/05/20 02:52:51;;;;;;;5.40;4.90;;;19.10;93.40;;;;;;5012590;28;20505;-50
2021/05/20 02:55:23;;;;;;;5.60;5.00;;;19.30;93.80;;;;;;5012620;28;20493;-48
2021/05/20 02:57:54;;;;;;;6.72;5.50;;;19.40;92.40;;;;;;5012640;28;20041;-50
2021/05/20 03:00:26;;;;;;;7.03;5.50;;;19.50;93.10;;;;;;5012663;28;20021;-53
2021/05/20 03:02:54;;;;;;;5.47;4.95;;;19.80;93.50;;;;;;5012609;28;20096;-48
2021/05/20 03:05:21;;;;;;;5.97;4.65;;;19.90;92.50;;;;;;5015789;28;20022;-52
2021/05/20 03:07:49;;;;;;;7.25;5.40;;;19.90;93.10;;;;;;5016228;28;20116;-51
2021/05/20 03:10:16;;;;;;;6.20;4.65;;;20.30;93.10;;;;;;5016179;28;20022;-52
2021/05/20 03:12:44;;;;;;;5.40;4.70;;;20.10;92.50;;;;;;5016002;28;20030;-51
2021/05/20 03:15:12;;;;;;;5.28;4.57;;;20.20;92.30;;;;;;5016062;28;20022;-50
2021/05/20 03:17:39;;;;;;;5.53;5.05;;;20.30;92.70;;;;;;5016299;28;20028;-50
2021/05/20 03:20:08;;;;;;;5.10;4.70;;;20.30;92.40;;;;;;5015940;28;20030;-55
2021/05/20 03:22:36;;;;;;;5.15;4.70;;;19.80;92.60;;;;;;5015991;28;20025;-55
2021/05/20 03:25:03;;;;;;;5.63;5.10;;;19.60;92.90;;;;;;5015885;28;20033;-51
2021/05/20 03:27:31;;;;;;;4.97;4.65;;;19.70;93.20;;;;;;5015870;28;20092;-50
2021/05/20 03:29:58;;;;;;;7.15;5.07;;;19.70;93.10;;;;;;5015655;28;20391;-52
2021/05/20 03:32:25;;;;;;;5.18;4.68;;;19.70;93.10;;;;;;5015734;28;20033;-53
2021/05/20 03:34:53;;;;;;;4.75;4.32;;;20.30;93.30;;;;;;5015697;28;20027;-54
2021/05/20 03:37:20;;;;;;;6.00;4.65;;;20.40;92.70;;;;;;5015635;28;20014;-50
2021/05/20 03:39:47;;;;;;;6.68;4.18;;;20.40;92.10;;;;;;5015678;28;20488;-49
2021/05/20 03:42:15;;;;;;;4.85;4.30;;;20.30;92.60;;;;;;5015571;28;20482;-51
2021/05/20 03:44:42;;;;;;;5.30;4.00;;;20.30;92.60;;;;;;5015518;28;20030;-51
2021/05/20 03:47:09;;;;;;;4.22;3.85;;;20.40;92.60;;;;;;5015580;28;20022;-53
2021/05/20 03:49:37;;;;;;;4.10;3.67;;;20.50;91.90;;;;;;5015293;28;20105;-55
2021/05/20 03:52:04;;;;;;;3.75;3.45;;;20.60;91.10;;;;;;5015374;28;20034;-55
2021/05/20 03:54:32;;;;;;;4.25;3.90;;;20.80;91.20;;;;;;5015416;28;20034;-52
2021/05/20 03:56:59;;;;;;;4.28;3.97;;;21.00;91.00;;;;;;5015111;28;20048;-54
2021/05/20 03:59:26;;;;;;;5.20;3.83;;;21.00;90.90;;;;;;5015210;28;20022;-51
2021/05/20 04:01:53;;;;;;;4.63;4.15;;;21.00;89.70;;;;;;5015160;28;20026;-51
2021/05/20 04:04:21;;;;;;;3.75;3.45;;;20.90;90.20;;;;;;5015114;28;20030;-52
2021/05/20 04:06:48;;;;;;;4.13;3.45;;;21.00;84.90;;;;;;5014911;28;20146;-51
2021/05/20 04:09:15;;;;;;;5.80;3.35;;;21.10;80.20;;;;;;5015144;28;20022;-53
2021/05/20 04:11:43;;;;;;;3.30;3.00;;;21.10;79.10;;;;;;5014707;28;20434;-53
2021/05/20 04:14:10;;;;;;;3.72;3.33;;;21.10;80.30;;;;;;4996873;28;20057;-56
2021/05/20 04:16:38;;;;;;;4.28;3.78;;;21.00;85.80;;;;;;5014879;28;20029;-51
2021/05/20 04:19:05;;;;;;;4.65;3.20;;;20.80;85.80;;;;;;5014450;28;20479;-54
2021/05/20 04:21:33;;;;;;;5.38;4.20;;;20.70;86.60;;;;;;5014821;28;20022;-56
2021/05/20 04:24:00;;;;;;;3.65;3.40;;;20.80;88.40;;;;;;5014755;28;20513;-56
2021/05/20 04:26:28;;;;;;;6.38;3.72;;;20.90;87.30;;;;;;5014511;28;20022;-54
2021/05/20 04:28:55;;;;;;;4.57;3.97;;;20.90;86.40;;;;;;5014845;28;20026;-52
2021/05/20 04:31:23;;;;;;;4.07;3.70;;;20.80;87.10;;;;;;5014647;28;20383;-57
2021/05/20 04:33:50;;;;;;;4.50;4.10;;;20.40;86.00;;;;;;5014463;28;20026;-54
2021/05/20 04:36:18;;;;;;;4.75;3.97;;;20.00;87.40;;;;;;5014652;28;20028;-54
2021/05/20 04:38:46;;;;;;;4.55;4.10;;;19.70;90.70;;;;;;5014640;28;20029;-52
2021/05/20 04:41:13;;;;;;;5.05;4.47;;;19.50;91.80;;;;;;5014512;28;20026;-52
2021/05/20 04:43:40;;;;;;;3.80;3.50;;;19.60;92.00;;;;;;5014447;28;20033;-51
2021/05/20 04:46:08;;;;;;;3.90;3.50;;;19.60;92.40;;;;;;5014675;28;20053;-49
2021/05/20 04:48:35;;;;;;;3.88;3.55;;;19.60;92.30;;;;;;5014414;28;20032;-56
2021/05/20 04:51:02;;;;;;;3.90;3.60;;;19.60;92.10;;;;;;5014244;28;20046;-51
2021/05/20 04:53:30;;;;;;;3.75;3.20;;;19.50;91.90;;;;;;5014197;28;20065;-56
2021/05/20 04:55:57;;;;;;;3.20;3.00;;;19.50;92.40;;;;;;5014229;28;20022;-54
2021/05/20 04:58:25;;;;;;;3.55;3.22;;;19.50;92.30;;;;;;5014079;28;20266;-53
2021/05/20 05:00:52;;;;;;;3.47;3.28;;;19.40;90.90;;;;;;5014164;28;20429;-55
2021/05/20 05:03:19;;;;;;;3.75;3.28;;;19.40;91.40;;;;;;5014050;28;20032;-55
2021/05/20 05:05:47;;;;;;;3.63;3.30;;;19.40;90.70;;;;;;5014101;28;20030;-53
2021/05/20 05:08:15;;;;;;;3.63;3.30;;;19.30;90.20;;;;;;5013878;28;20033;-51
2021/05/20 05:10:42;;;;;;;3.60;3.30;;;19.40;90.10;;;;;;4996290;28;20026;-49
2021/05/20 05:13:09;;;;;;;5.00;3.83;;;19.50;90.60;;;;;;5013859;28;20030;-55
2021/05/20 05:15:37;;;;;;;3.75;3.45;;;19.40;89.60;;;;;;4996219;28;20026;-52
2021/05/20 05:18:04;;;;;;;4.30;3.60;;;19.40;90.10;;;;;;5013800;28;20475;-51
2021/05/20 05:20:31;;;;;;;3.95;3.50;;;19.20;90.40;;;;;;5013777;28;20545;-50
2021/05/20 05:22:59;;;;;;;4.63;3.70;;;19.20;91.20;;;;;;5013683;28;20104;-55
2021/05/20 05:25:26;;;;;;;3.90;3.50;;;19.10;91.50;;;;;;5013489;28;20410;-54
2021/05/20 05:27:53;;;;;;;4.20;3.90;;;19.10;91.80;;;;;;5012869;28;20026;-52
2021/05/20 05:30:21;;;;;;;3.97;3.67;;;19.00;92.10;;;;;;5013611;28;20390;-54
2021/05/20 05:32:48;;;;;;;4.15;3.90;;;18.90;92.30;;;;;;5013535;28;20383;-50
2021/05/20 05:35:16;;;;;;;4.53;3.60;;;18.90;92.60;;;;;;5013345;28;20022;-52
2021/05/20 05:37:43;;;;;;;4.10;3.85;;;18.90;92.90;;;;;;5013531;28;20444;-51
2021/05/20 05:40:11;;;;;;;3.90;3.60;;;18.90;93.00;;;;;;5013553;28;20022;-54
2021/05/20 05:42:38;;;;;;;4.10;3.58;;;18.80;93.20;;;;;;5013447;28;20097;-51
2021/05/20 05:45:07;;;;;;;4.00;3.63;;;18.80;93.20;;;;;;5013489;28;20541;-55
2021/05/20 05:47:35;;;;;;;3.60;3.30;;;18.80;93.40;;;;;;4995980;28;20022;-55
2021/05/20 05:50:08;;;;;;;5.22;3.40;;;18.70;93.70;;;;;;5013184;28;20038;-53
2021/05/20 05:52:36;;;;;;;3.60;3.30;;;18.60;92.90;;;;;;5013184;28;20030;-53
2021/05/20 05:55:05;;;;;;;3.63;3.33;;;18.60;93.20;;;;;;5013184;28;20109;-53
2021/05/20 05:57:33;;;;;;;4.03;3.63;;;18.50;93.10;;;;;;5013305;28;20026;-54
2021/05/20 06:00:01;;;;;;;3.78;3.58;;;18.40;93.00;;;;;;4995909;28;20024;-49
2021/05/20 06:02:30;;;;;;;4.55;3.17;;;18.40;93.10;;;;;;5013245;28;20020;-55
2021/05/20 06:04:57;;;;;;;4.00;3.70;;;18.30;93.30;;;;;;5013075;28;20022;-53
2021/05/20 06:07:26;;;;;;;5.07;4.35;;;18.30;92.80;;;;;;5013252;28;20014;-55
2021/05/20 06:09:53;;;;;;;4.63;3.75;;;18.20;92.40;;;;;;5013157;28;20051;-55
2021/05/20 06:12:20;;;;;;;5.60;4.15;;;18.20;93.30;;;;;;5012998;28;20026;-53
2021/05/20 06:14:48;;;;;;;4.25;3.95;;;18.10;93.30;;;;;;5013140;28;20076;-50
2021/05/20 06:17:16;;;;;;;4.57;3.95;;;18.00;92.90;;;;;;5013159;28;20037;-50
2021/05/20 06:19:43;;;;;;;4.00;3.65;;;18.00;92.70;;;;;;5012979;28;20033;-53
2021/05/20 06:22:10;;;;;;;4.20;3.90;;;17.90;93.10;;;;;;5012956;28;20021;-52
2021/05/20 06:24:37;;;;;;;4.47;3.80;;;17.70;93.10;;;;;;4995341;28;20029;-52
2021/05/20 06:27:05;;;;;;;4.30;3.95;;;17.60;93.20;;;;;;5013001;28;20058;-54
2021/05/20 06:29:32;;;;;;;3.90;3.60;;;17.50;93.60;;;;;;5013026;28;20066;-52
2021/05/20 06:32:00;;;;;;;4.93;4.32;;;17.40;95.70;;;;;;5013038;28;20038;-57
2021/05/20 06:34:27;;;;;;;4.60;4.20;;;17.20;94.50;;;;;;5012957;28;20030;-57
2021/05/20 06:36:57;;;;;;;4.32;3.80;;;17.10;95.00;;;;;;5013086;28;20050;-56
2021/05/20 06:39:24;;;;;;;4.17;3.80;;;17.00;94.60;;;;;;5016406;28;20458;-55
2021/05/20 06:41:52;;;;;;;5.30;4.25;;;17.00;94.20;;;;;;5016739;28;20033;-54
2021/05/20 06:44:19;;;;;;;5.00;3.85;;;16.90;94.20;;;;;;5016732;28;20032;-52
2021/05/20 06:46:46;;;;;;;4.15;3.70;;;16.90;93.80;;;;;;5016680;28;20021;-53
2021/05/20 06:49:14;;;;;;;3.78;3.38;;;17.00;93.80;;;;;;5016304;28;20482;-51
2021/05/20 06:51:41;;;;;;;3.70;3.30;;;16.80;94.20;;;;;;5016567;28;20498;-55
2021/05/20 06:54:08;;;;;;;5.32;3.75;;;16.70;94.30;;;;;;5016702;28;20018;-54
2021/05/20 06:56:36;;;;;;;6.90;4.38;;;16.50;95.00;;;;;;5016544;28;20034;-57
2021/05/20 07:01:49;;;;;;;5.68;3.97;;;16.10;96.20;;;;;;5016405;28;20025;-55
2021/05/20 07:04:16;;;;;;;5.45;4.35;;;16.00;96.40;;;;;;5016242;28;20017;-56
2021/05/20 07:06:44;;;;;;;5.47;4.97;;;15.80;96.70;;;;;;5016142;28;20085;-54
2021/05/20 07:09:11;;;;;;;5.47;4.97;;;15.70;96.70;;;;;;5016106;28;20037;-52
2021/05/20 07:11:39;;;;;;;5.15;4.10;;;15.50;97.30;;;;;;5016099;28;20022;-59
2021/05/20 07:14:06;;;;;;;7.82;4.13;;;15.40;97.80;;;;;;5016595;28;20077;-55
2021/05/20 07:16:33;;;;;;;4.65;4.15;;;15.30;98.00;;;;;;5016032;28;20073;-56
2021/05/20 07:19:01;;;;;;;5.22;4.72;;;15.30;97.00;;;;;;5015888;28;20045;-55
2021/05/20 07:21:28;;;;;;;4.78;4.38;;;15.30;96.60;;;;;;5016028;28;20467;-53
2021/05/20 07:23:55;;;;;;;4.00;3.70;;;15.20;97.20;;;;;;5016088;28;20022;-58
2021/05/20 07:26:23;;;;;;;4.55;4.15;;;15.30;94.50;;;;;;4998387;28;20037;-58
2021/05/20 07:28:50;;;;;;;4.10;3.80;;;15.60;93.80;;;;;;5016053;28;20437;-58
2021/05/20 07:31:17;;;;;;;5.85;3.78;;;15.50;94.30;;;;;;5015777;28;20018;-56
2021/05/20 07:33:45;;;;;;;4.72;4.28;;;15.40;93.90;;;;;;5015645;28;20036;-56
2021/05/20 07:36:12;;;;;;;4.47;4.05;;;15.40;93.90;;;;;;5015685;28;20101;-55
2021/05/20 07:38:39;;;;;;;4.38;3.97;;;15.40;93.70;;;;;;5015614;28;20496;-56
2021/05/20 07:41:08;;;;;;;4.68;4.00;;;15.40;94.70;;;;;;5015491;28;20053;-56
2021/05/20 07:43:35;;;;;;;4.30;3.90;;;15.40;93.80;;;;;;5015671;28;20049;-57
2021/05/20 07:46:03;;;;;;;4.85;4.40;;;15.20;94.10;;;;;;5015450;28;20517;-57
2021/05/20 07:48:33;;;;;;;4.43;4.03;;;15.10;94.60;;;;;;5015508;28;20477;-56
2021/05/20 07:51:06;;;;;;;4.88;4.47;;;15.10;94.40;;;;;;5014693;28;20137;-55
2021/05/20 07:53:33;;;;;;;5.20;4.10;;;14.90;94.90;;;;;;5015599;28;20466;-58
2021/05/20 07:56:02;;;;;;;5.47;4.85;;;14.80;95.00;;;;;;5015153;28;20166;-57
2021/05/20 07:58:31;;;;;;;5.53;4.50;;;14.70;95.40;;;;;;5015143;28;20089;-56
2021/05/20 08:01:03;;;;;;;5.57;4.35;;;14.70;95.20;;;;;;5015048;28;20491;-59
2021/05/20 08:03:42;;;;;;;4.90;4.05;;;14.60;96.00;;;;;;5015105;28;20040;-57
2021/05/20 08:06:16;;;;;;;4.95;4.43;;;14.60;95.10;;;;;;5015172;28;20504;-56
2021/05/20 08:09:02;;;;;;;5.25;4.50;;;14.70;95.50;;;;;;5015211;28;20034;-56
2021/05/20 08:11:31;;;;;;;5.18;4.70;;;14.60;95.50;;;;;;5015053;28;20461;-54
2021/05/20 08:13:58;;;;;;;4.63;3.90;;;14.40;96.30;;;;;;5015026;28;20532;-54
2021/05/20 08:16:26;;;;;;;6.63;4.30;;;14.40;96.30;;;;;;5014888;28;20048;-56
2021/05/20 08:18:53;;;;;;;5.57;5.00;;;14.40;95.90;;;;;;5014632;28;20080;-53
2021/05/20 08:21:20;;;;;;;4.53;4.20;;;14.40;95.80;;;;;;5014686;28;20030;-55
2021/05/20 08:23:48;;;;;;;4.72;4.13;;;14.50;96.00;;;;;;5014925;28;20470;-52
2021/05/20 08:26:15;;;;;;;4.53;4.05;;;14.40;95.80;;;;;;5014718;28;20026;-52
2021/05/20 08:28:42;;;;;;;4.90;4.40;;;14.40;96.20;;;;;;5014751;28;20053;-53
2021/05/20 08:31:10;;;;;;;4.60;4.20;;;14.40;96.30;;;;;;5014910;28;20048;-52
2021/05/20 08:33:37;;;;;;;4.95;4.03;;;14.30;96.50;;;;;;5014545;28;20041;-54
2021/05/20 08:36:05;;;;;;;7.20;4.07;;;14.30;96.70;;;;;;5014544;28;20533;-52
2021/05/20 08:38:32;;;;;;;4.20;3.80;;;14.20;97.50;;;;;;5014577;28;20014;-53
2021/05/20 08:41:00;;;;;;;5.13;3.90;;;14.20;97.70;;;;;;5014187;28;20391;-52
2021/05/20 08:43:27;;;;;;;8.48;4.72;;;14.10;97.70;;;;;;5014149;28;20445;-52
2021/05/20 08:45:55;;;;;;;5.10;4.63;;;14.10;98.20;;;;;;5014238;28;20410;-52
2021/05/20 08:48:22;;;;;;;7.10;5.00;;;14.10;97.90;;;;;;4996484;28;20098;-52
2021/05/20 08:50:50;;;;;;;5.85;5.00;;;14.10;98.40;;;;;;4982655;28;20042;-52
2021/05/20 08:53:17;;;;;;;9.82;6.95;;;14.00;98.30;;;;;;4994612;28;20030;-53
2021/05/20 08:55:44;;;;;;;12.07;6.95;;;14.20;97.80;;;;;;4994678;28;20394;-53
2021/05/20 08:58:13;;;;;;;10.02;6.88;;;14.10;97.90;;;;;;4994449;28;20462;-55
2021/05/20 09:00:41;;;;;;;7.32;6.18;;;14.30;97.90;;;;;;4994187;28;20022;-53
2021/05/20 09:03:15;;;;;;;10.35;6.38;;;14.30;98.00;;;;;;4994090;28;20061;-52
2021/05/20 09:05:43;;;;;;;6.15;5.45;;;14.20;98.50;;;;;;4994671;28;20022;-54
2021/05/20 09:08:16;;;;;;;6.53;5.97;;;14.10;98.50;;;;;;4994348;28;20030;-54
2021/05/20 09:10:45;;;;;;;8.15;5.65;;;13.90;99.80;;;;;;4976938;28;20057;-55
2021/05/20 09:13:18;;;;;;;7.35;5.82;;;13.70;99.90;;;;;;4994423;28;20022;-53
2021/05/20 09:15:51;;;;;;;6.28;5.65;;;13.50;99.90;;;;;;4994412;28;20018;-54
2021/05/20 09:18:24;;;;;;;6.90;5.53;;;13.30;99.90;;;;;;4977060;28;20022;-54
2021/05/20 09:20:54;;;;;;;6.60;5.78;;;13.20;99.90;;;;;;4994050;28;20033;-57
2021/05/20 09:23:27;;;;;;;6.53;5.93;;;13.10;99.90;;;;;;4976833;28;20026;-56
2021/05/20 09:26:04;;;;;;;5.95;5.38;;;13.10;99.90;;;;;;4977157;28;20031;-55
2021/05/20 09:28:40;;;;;;;5.70;5.28;;;13.20;99.90;;;;;;4994167;28;20030;-54
2021/05/20 09:31:09;;;;;;;5.82;5.35;;;13.10;99.90;;;;;;4994013;28;20384;-53
2021/05/20 09:33:37;;;;;;;6.00;5.05;;;13.20;99.90;;;;;;4993982;28;20100;-52
2021/05/20 09:36:04;;;;;;;6.90;5.45;;;13.40;99.90;;;;;;4994054;28;20384;-55
2021/05/20 09:38:37;;;;;;;4.78;4.18;;;13.50;99.90;;;;;;4994063;28;20026;-54
2021/05/20 09:41:06;;;;;;;6.13;4.43;;;13.70;99.90;;;;;;4993874;28;20026;-55
2021/05/20 09:43:42;;;;;;;5.70;4.10;;;13.70;99.90;;;;;;4993888;28;20494;-52
2021/05/20 09:46:18;;;;;;;6.72;4.30;;;13.60;99.90;;;;;;4993907;28;20034;-53
2021/05/20 09:48:50;;;;;;;5.90;4.68;;;13.50;99.90;;;;;;4993871;28;20423;-60
2021/05/20 09:51:25;;;;;;;7.38;4.38;;;13.50;99.90;;;;;;4993779;28;20046;-56
2021/05/20 09:53:54;;;;;;;6.43;4.45;;;13.50;99.90;;;;;;4993756;28;20117;-55
2021/05/20 09:56:41;;;;;;;5.25;4.47;;;13.40;99.90;;;;;;4993743;28;20018;-52
2021/05/20 09:59:16;;;;;;;5.03;4.57;;;13.40;99.90;;;;;;4993812;28;20046;-55
2021/05/20 10:01:45;;;;;;;5.88;5.32;;;13.40;99.90;;;;;;4993394;28;20037;-53
2021/05/20 10:04:29;;;;;;;7.70;4.90;;;13.30;99.90;;;;;;4993557;28;20033;-56
2021/05/20 10:06:58;;;;;;;5.10;4.45;;;13.30;99.90;;;;;;4993949;28;20054;-54
2021/05/20 10:09:26;;;;;;;5.20;4.30;;;13.30;99.90;;;;;;4993515;28;20399;-52
2021/05/20 10:11:54;;;;;;;6.70;4.80;;;13.30;99.90;;;;;;4993686;28;20426;-52
2021/05/20 10:14:23;;;;;;;5.20;4.32;;;13.20;99.90;;;;;;4997113;28;20026;-52
2021/05/20 10:16:51;;;;;;;5.05;4.55;;;13.20;99.90;;;;;;4997565;28;20029;-53
2021/05/20 10:19:19;;;;;;;6.68;4.72;;;13.20;99.90;;;;;;4997801;28;20023;-53
2021/05/20 10:21:47;;;;;;;5.10;4.63;;;13.10;99.90;;;;;;4997463;28;20029;-54
2021/05/20 10:24:15;;;;;;;4.93;4.47;;;13.10;99.90;;;;;;4997380;28;20019;-55
2021/05/20 10:26:43;;;;;;;6.38;5.18;;;13.10;99.90;;;;;;4997402;28;20026;-52
2021/05/20 10:29:10;;;;;;;5.57;5.00;;;13.10;99.90;;;;;;4997282;28;20022;-54
2021/05/20 10:31:43;;;;;;;5.43;4.93;;;13.10;99.90;;;;;;4997503;28;20539;-53
2021/05/20 10:34:14;;;;;;;9.38;5.13;;;13.10;99.90;;;;;;4997179;28;20054;-52
2021/05/20 10:36:59;;;;;;;5.28;4.80;;;13.00;99.90;;;;;;4980475;28;20022;-53
2021/05/20 10:39:27;;;;;;;6.40;5.90;;;12.90;99.90;;;;;;4997499;28;20026;-54
2021/05/20 10:41:56;;;;;;;7.75;6.40;;;13.00;99.90;;;;;;4997101;28;20018;-54
2021/05/20 10:44:25;;;;;;;8.07;6.35;;;12.90;99.90;;;;;;4997174;28;20534;-53
2021/05/20 10:47:02;;;;;;;6.57;5.97;;;12.90;99.90;;;;;;4997067;28;20026;-53
2021/05/20 10:49:53;;;;;;;7.00;5.75;;;12.90;99.90;;;;;;4982420;28;20049;-58
2021/05/20 10:52:39;;;;;;;6.20;5.70;;;13.00;99.90;;;;;;5016672;28;20037;-56
2021/05/20 10:55:08;;;;;;;6.10;5.50;;;12.90;99.90;;;;;;5016432;28;20030;-55
2021/05/20 10:57:54;;;;;;;5.95;5.45;;;13.00;99.90;;;;;;4998852;28;20026;-50
2021/05/20 11:00:41;;;;;;;6.97;5.35;;;13.00;99.90;;;;;;5016322;28;20109;-56
2021/05/20 11:03:10;;;;;;;6.75;6.15;;;13.10;99.90;;;;;;5016750;28;20469;-52
2021/05/20 11:05:43;;;;;;;7.32;5.78;;;13.10;99.90;;;;;;5016362;28;20022;-53
2021/05/20 11:08:31;;;;;;;7.45;5.70;;;13.10;99.90;;;;;;5016060;28;20100;-55
2021/05/20 11:11:01;;;;;;;6.50;5.95;;;13.10;99.90;;;;;;5015642;28;20029;-57
2021/05/20 11:13:39;;;;;;;6.95;6.03;;;13.10;99.90;;;;;;5016241;28;20068;-53
2021/05/20 11:16:18;;;;;;;8.23;7.43;;;13.00;99.90;;;;;;5015791;28;20033;-54
2021/05/20 11:18:51;;;;;;;9.02;8.25;;;12.90;99.90;;;;;;5015820;28;20105;-52
2021/05/20 11:21:18;;;;;;;9.32;8.45;;;12.80;99.90;;;;;;5015957;28;20014;-52
2021/05/20 11:23:46;;;;;;;9.57;8.77;;;12.70;99.90;;;;;;5015207;28;20030;-54
2021/05/20 11:26:23;;;;;;;10.07;9.27;;;12.50;99.90;;;;;;5015247;28;20041;-52
2021/05/20 11:29:06;;;;;;;10.75;9.75;;;12.40;99.90;;;;;;5015716;28;20034;-52
2021/05/20 11:31:33;;;;;;;10.40;9.40;;;12.50;99.90;;;;;;5015895;28;20036;-57
2021/05/20 11:35:02;;;;;;;11.55;10.55;;;12.40;99.90;;;;;;5015726;28;20026;-56
2021/05/20 11:36:54;;;;;;;11.25;10.45;;;12.40;99.90;;;;;;5004849;28;20487;-55
2021/05/20 11:39:22;;;;;;;12.13;11.02;;;12.40;99.90;;;;;;5015658;28;20018;-54
2021/05/20 11:41:52;;;;;;;11.25;10.20;;;12.40;99.90;;;;;;4998007;28;20431;-56
2021/05/20 11:44:22;;;;;;;9.10;8.40;;;12.40;99.90;;;;;;5015637;28;20026;-55
2021/05/20 11:47:02;;;;;;;10.02;9.10;;;12.40;99.90;;;;;;5015364;28;20026;-52
2021/05/20 11:49:31;;;;;;;11.52;10.40;;;12.30;99.90;;;;;;4994656;28;20097;-50
2021/05/20 11:52:03;;;;;;;11.50;9.52;;;12.30;99.90;;;;;;4995840;28;20412;-50
2021/05/20 11:54:36;;;;;;;10.05;8.93;;;12.30;99.90;;;;;;4978678;28;20026;-55
2021/05/20 11:57:06;;;;;;;7.88;7.30;;;12.40;99.90;;;;;;4995959;28;20026;-55
2021/05/20 11:59:37;;;;;;;9.00;7.80;;;12.50;99.90;;;;;;4978758;28;20026;-56
2021/05/20 12:02:06;;;;;;;8.30;7.40;;;12.50;99.90;;;;;;4995801;28;20098;-56
2021/05/20 12:04:34;;;;;;;8.35;7.65;;;12.60;99.90;;;;;;4995642;28;20118;-51
2021/05/20 12:07:02;;;;;;;7.97;7.25;;;12.60;99.90;;;;;;4995546;28;20054;-50
2021/05/20 12:09:29;;;;;;;7.35;6.63;;;12.60;99.90;;;;;;4995451;28;20030;-50
2021/05/20 12:11:57;;;;;;;7.13;6.63;;;12.40;99.90;;;;;;4995478;28;20442;-51
2021/05/20 12:14:42;;;;;;;7.03;6.35;;;12.40;99.90;;;;;;4995417;28;20061;-57
2021/05/20 12:17:19;;;;;;;7.07;6.32;;;12.50;99.90;;;;;;4995391;28;20022;-56
2021/05/20 12:19:49;;;;;;;7.68;6.80;;;12.50;99.90;;;;;;4995471;28;20029;-54
2021/05/20 12:22:27;;;;;;;7.30;6.25;;;12.50;99.90;;;;;;4995468;28;20027;-51
2021/05/20 12:25:09;;;;;;;8.20;6.32;;;12.40;99.90;;;;;;4995327;28;20053;-52
2021/05/20 12:27:46;;;;;;;7.75;5.45;;;12.40;99.90;;;;;;4995121;28;20026;-50
2021/05/20 12:30:28;;;;;;;6.50;5.82;;;12.40;99.90;;;;;;4994922;28;20023;-54
2021/05/20 12:33:16;;;;;;;9.02;6.57;;;12.30;99.90;;;;;;4994870;28;20089;-53
2021/05/20 12:35:44;;;;;;;9.10;5.95;;;12.20;99.90;;;;;;4994860;28;20022;-53
2021/05/20 12:38:22;;;;;;;9.45;6.43;;;12.20;99.90;;;;;;4977711;28;20029;-55
2021/05/20 12:40:54;;;;;;;6.75;5.80;;;12.30;99.90;;;;;;4994760;28;20084;-51
2021/05/20 12:43:28;;;;;;;6.88;6.18;;;12.20;99.90;;;;;;4994791;28;20031;-57
2021/05/20 12:46:19;;;;;;;7.78;6.05;;;12.20;99.90;;;;;;4994618;28;20092;-56
2021/05/20 12:49:05;;;;;;;;;;;12.20;99.90;;;;;;4995218;28;20031;-58
2021/05/20 12:51:33;;;;;;;6.95;6.35;;;12.20;99.90;;;;;;5013982;28;19913;-57
2021/05/20 12:54:09;;;;;;;6.93;6.00;;;12.20;99.90;;;;;;5014155;28;20030;-55
2021/05/20 12:56:43;;;;;;;7.70;6.20;;;12.10;99.90;;;;;;5014089;28;20097;-54
2021/05/20 12:59:16;;;;;;;7.00;6.40;;;12.10;99.90;;;;;;5014223;28;20087;-58
2021/05/20 13:01:50;;;;;;;8.18;7.32;;;11.90;99.90;;;;;;5014111;28;20025;-53